Time;durP1;ratioP1;P1;durP2;ratioP2;P2;SDS_P1;SDS_P2;PMS_P1;PMS_P2;Temp;Humidity;BMP_temperature;BMP_pressure;BME280_temperature;BME280_humidity;BME280_pressure;Samples;Min_cycle;Max_cycle;Signal;HPM_P1;HPM_P2
2020/12/25 00:00:38;;;;;;;12.70;8.17;;;1.80;99.90;;;;;;5110067;28;20514;-74
2020/12/25 00:03:04;;;;;;;5.90;4.30;;;1.90;99.90;;;;;;5110272;28;20456;-73
2020/12/25 00:05:31;;;;;;;7.10;5.37;;;1.90;99.90;;;;;;5109780;28;20441;-74
2020/12/25 00:07:57;;;;;;;8.00;5.07;;;1.90;99.90;;;;;;5110037;28;20522;-75
2020/12/25 00:10:24;;;;;;;4.80;3.67;;;1.90;99.90;;;;;;5110272;28;20445;-74
2020/12/25 00:12:50;;;;;;;4.50;3.43;;;1.90;99.90;;;;;;5110666;28;20452;-74
2020/12/25 00:15:16;;;;;;;4.33;3.30;;;1.90;99.90;;;;;;5110159;28;20463;-75
2020/12/25 00:17:44;;;;;;;4.80;3.17;;;1.90;99.90;;;;;;5106694;28;21018;-73
2020/12/25 00:20:10;;;;;;;3.00;2.50;;;1.90;99.90;;;;;;5110508;28;20549;-74
2020/12/25 00:22:36;;;;;;;4.53;3.17;;;1.90;99.90;;;;;;5110495;28;20524;-74
2020/12/25 00:25:03;;;;;;;3.40;2.63;;;1.90;99.90;;;;;;5110560;28;20455;-74
2020/12/25 00:27:29;;;;;;;3.70;2.60;;;2.00;99.90;;;;;;5108758;28;20552;-74
2020/12/25 00:29:56;;;;;;;3.67;2.60;;;2.00;99.90;;;;;;5109920;28;20532;-73
2020/12/25 00:32:22;;;;;;;4.23;3.07;;;2.00;99.90;;;;;;5109630;28;20913;-74
2020/12/25 00:34:49;;;;;;;4.60;3.10;;;2.00;99.90;;;;;;5103597;28;20855;-75
2020/12/25 00:37:16;;;;;;;3.70;2.40;;;2.00;99.90;;;;;;5108978;28;20453;-74
2020/12/25 00:39:42;;;;;;;5.37;3.07;;;2.00;99.90;;;;;;5110328;28;21278;-74
2020/12/25 00:42:10;;;;;;;3.90;2.83;;;2.00;99.90;;;;;;5110163;28;20804;-74
2020/12/25 00:44:36;;;;;;;4.10;3.20;;;2.10;99.90;;;;;;5109867;28;20455;-75
2020/12/25 00:47:03;;;;;;;4.40;3.07;;;2.10;99.90;;;;;;5109016;28;20493;-74
2020/12/25 00:49:29;;;;;;;4.50;3.20;;;2.10;99.90;;;;;;5109519;28;20460;-73
2020/12/25 00:51:56;;;;;;;3.87;2.40;;;2.10;99.90;;;;;;5110204;28;20530;-74
2020/12/25 00:54:23;;;;;;;4.70;2.93;;;2.10;99.90;;;;;;5109790;28;20464;-74
2020/12/25 00:56:49;;;;;;;4.13;2.77;;;2.10;99.90;;;;;;5108541;28;20523;-74
2020/12/25 00:59:16;;;;;;;3.40;2.47;;;2.20;99.90;;;;;;5109096;28;20580;-74
2020/12/25 01:01:43;;;;;;;3.77;2.93;;;2.10;99.90;;;;;;5110047;28;20471;-74
2020/12/25 01:04:09;;;;;;;3.43;2.93;;;2.20;99.90;;;;;;5109371;28;21190;-74
2020/12/25 01:06:35;;;;;;;4.47;3.17;;;2.20;99.90;;;;;;5109050;28;20446;-76
2020/12/25 01:09:03;;;;;;;5.33;3.20;;;2.20;99.90;;;;;;5110424;28;20525;-73
2020/12/25 01:11:29;;;;;;;4.00;3.10;;;2.10;99.90;;;;;;5109877;28;20544;-72
2020/12/25 01:13:56;;;;;;;4.87;3.57;;;2.00;99.90;;;;;;5110097;28;20453;-75
2020/12/25 01:16:22;;;;;;;4.33;3.10;;;2.00;99.90;;;;;;5105588;28;20465;-74
2020/12/25 01:18:49;;;;;;;4.73;3.40;;;1.90;99.90;;;;;;5109743;28;20493;-73
2020/12/25 01:21:16;;;;;;;5.03;3.30;;;1.90;99.90;;;;;;5109407;28;20449;-74
2020/12/25 01:23:44;;;;;;;4.30;3.43;;;1.90;99.90;;;;;;5109979;28;20540;-77
2020/12/25 01:26:11;;;;;;;4.67;3.67;;;1.90;99.90;;;;;;5107999;28;20451;-73
2020/12/25 01:28:38;;;;;;;4.87;3.80;;;1.80;99.90;;;;;;5110473;28;20907;-75
2020/12/25 01:31:05;;;;;;;5.23;3.40;;;1.90;99.90;;;;;;5110029;28;20452;-74
2020/12/25 01:33:31;;;;;;;5.47;4.20;;;1.80;99.90;;;;;;5108911;28;20448;-74
2020/12/25 01:35:58;;;;;;;4.97;3.40;;;1.90;99.90;;;;;;5107985;28;20551;-73
2020/12/25 01:38:24;;;;;;;5.07;3.90;;;1.90;99.90;;;;;;5108509;28;20495;-74
2020/12/25 01:40:51;;;;;;;5.33;4.37;;;2.00;99.90;;;;;;5108365;28;20441;-75
2020/12/25 01:43:18;;;;;;;4.97;3.90;;;2.00;99.90;;;;;;5108694;28;20470;-74
2020/12/25 01:45:44;;;;;;;5.20;4.30;;;2.00;99.90;;;;;;5097959;28;20593;-71
2020/12/25 01:48:11;;;;;;;4.80;3.63;;;2.00;99.90;;;;;;5092479;28;20454;-74
2020/12/25 01:50:38;;;;;;;4.43;3.80;;;2.00;99.90;;;;;;5102191;28;20449;-74
2020/12/25 01:53:08;;;;;;;4.20;3.73;;;2.00;99.90;;;;;;5110692;28;20479;-74
2020/12/25 01:55:35;;;;;;;5.27;3.93;;;2.00;99.90;;;;;;5112893;28;20517;-75
2020/12/25 01:58:02;;;;;;;5.63;4.37;;;2.10;99.90;;;;;;5112293;28;20517;-75
2020/12/25 02:00:30;;;;;;;6.90;5.30;;;2.10;99.90;;;;;;5109455;28;20452;-75
2020/12/25 02:02:57;;;;;;;6.80;5.23;;;2.20;99.90;;;;;;5108531;28;20445;-74
2020/12/25 02:05:23;;;;;;;8.50;6.03;;;2.30;99.90;;;;;;5108267;28;20451;-75
2020/12/25 02:07:50;;;;;;;8.27;6.10;;;2.40;99.90;;;;;;5107584;28;20599;-75
2020/12/25 02:10:18;;;;;;;10.20;6.10;;;2.40;99.90;;;;;;5108299;28;20457;-74
2020/12/25 02:12:45;;;;;;;8.13;5.73;;;2.50;99.90;;;;;;5108652;28;20473;-75
2020/12/25 02:15:12;;;;;;;9.60;6.97;;;2.50;99.90;;;;;;5108062;28;20834;-75
2020/12/25 02:17:46;;;;;;;11.10;7.87;;;2.60;99.90;;;;;;5106964;28;20608;-75
2020/12/25 02:20:12;;;;;;;9.13;7.20;;;2.60;99.90;;;;;;5108183;28;20433;-75
2020/12/25 02:22:40;;;;;;;9.73;6.90;;;2.60;99.90;;;;;;5107939;28;20528;-75
2020/12/25 02:25:06;;;;;;;7.00;5.63;;;2.60;99.90;;;;;;5100244;28;20453;-75
2020/12/25 02:27:33;;;;;;;8.87;6.63;;;2.70;99.90;;;;;;5102866;28;20540;-74
2020/12/25 02:30:00;;;;;;;9.80;7.00;;;2.70;99.90;;;;;;5108939;28;20556;-75
2020/12/25 02:32:26;;;;;;;11.10;8.30;;;2.70;99.90;;;;;;5109089;28;20452;-75
2020/12/25 02:34:53;;;;;;;10.63;7.73;;;2.80;99.90;;;;;;5108966;28;20445;-75
2020/12/25 02:37:19;;;;;;;10.00;6.90;;;2.80;99.90;;;;;;5108022;27;20528;-74
2020/12/25 02:39:47;;;;;;;9.80;7.93;;;2.80;99.90;;;;;;5108820;28;20469;-74
2020/12/25 02:42:13;;;;;;;11.87;8.17;;;2.90;99.90;;;;;;5108877;28;20935;-74
2020/12/25 02:44:42;;;;;;;9.00;7.37;;;2.90;99.90;;;;;;5108750;28;20460;-75
2020/12/25 02:47:09;;;;;;;12.17;7.50;;;2.90;99.90;;;;;;5108158;28;20455;-75
2020/12/25 02:49:36;;;;;;;11.30;7.53;;;3.00;99.90;;;;;;5108402;28;20465;-74
2020/12/25 02:52:02;;;;;;;13.20;8.57;;;3.00;99.90;;;;;;5108852;28;20566;-75
2020/12/25 02:54:28;;;;;;;13.80;7.90;;;3.00;99.90;;;;;;5108727;28;20445;-74
2020/12/25 02:56:56;;;;;;;14.70;10.13;;;2.90;99.90;;;;;;5108128;28;20480;-75
2020/12/25 02:59:22;;;;;;;11.93;8.70;;;3.00;99.90;;;;;;5107581;28;20564;-74
2020/12/25 03:01:49;;;;;;;12.97;8.57;;;3.00;99.90;;;;;;5108154;28;20499;-75
2020/12/25 03:04:16;;;;;;;10.60;7.77;;;3.00;99.90;;;;;;5108509;28;20449;-74
2020/12/25 03:06:42;;;;;;;11.13;8.47;;;3.00;99.90;;;;;;5107831;28;20987;-74
2020/12/25 03:09:09;;;;;;;12.53;8.70;;;3.00;99.90;;;;;;5108756;28;20834;-75
2020/12/25 03:11:35;;;;;;;11.73;8.53;;;3.00;99.90;;;;;;5108347;28;20447;-75
2020/12/25 03:14:03;;;;;;;11.00;8.17;;;3.10;99.90;;;;;;5108500;28;20571;-75
2020/12/25 03:16:29;;;;;;;12.40;9.10;;;3.00;99.90;;;;;;5107744;28;20701;-75
2020/12/25 03:18:55;;;;;;;14.57;8.47;;;3.10;99.90;;;;;;5108453;28;20580;-76
2020/12/25 03:21:22;;;;;;;12.93;8.73;;;3.00;99.90;;;;;;5108837;28;20456;-75
2020/12/25 03:23:48;;;;;;;10.60;8.10;;;3.10;99.90;;;;;;5108653;28;20445;-75
2020/12/25 03:26:16;;;;;;;12.23;8.57;;;3.10;99.90;;;;;;5107923;28;20446;-74
2020/12/25 03:28:42;;;;;;;12.03;8.57;;;3.10;99.90;;;;;;5108439;28;20987;-75
2020/12/25 03:31:09;;;;;;;12.43;7.70;;;3.10;99.90;;;;;;5107207;28;20529;-74
2020/12/25 03:33:36;;;;;;;10.67;8.20;;;3.10;99.90;;;;;;5108514;28;20425;-75
2020/12/25 03:36:03;;;;;;;10.97;8.10;;;3.10;99.90;;;;;;5107842;28;20524;-74
2020/12/25 03:38:29;;;;;;;11.77;8.77;;;3.10;99.90;;;;;;5108261;28;20572;-74
2020/12/25 03:40:56;;;;;;;12.87;8.70;;;3.10;99.90;;;;;;5109484;28;20445;-75
2020/12/25 03:43:22;;;;;;;10.37;9.20;;;3.10;99.90;;;;;;5109866;28;20479;-75
2020/12/25 03:45:48;;;;;;;11.50;7.57;;;3.10;99.90;;;;;;5108756;28;20532;-73
2020/12/25 03:48:16;;;;;;;13.57;8.50;;;3.10;99.90;;;;;;5109067;28;20571;-75
2020/12/25 03:50:43;;;;;;;13.63;9.60;;;3.10;99.90;;;;;;5111296;28;20996;-73
2020/12/25 03:53:09;;;;;;;10.40;8.40;;;3.20;99.90;;;;;;5110755;28;20453;-74
2020/12/25 03:55:35;;;;;;;11.27;8.33;;;3.20;99.90;;;;;;5108851;28;20445;-74
2020/12/25 03:58:02;;;;;;;14.10;9.37;;;3.10;99.90;;;;;;5109232;28;20996;-75
2020/12/25 04:00:28;;;;;;;10.67;8.07;;;3.10;99.90;;;;;;5110607;28;20532;-75
2020/12/25 04:02:54;;;;;;;12.47;8.97;;;3.10;99.90;;;;;;5109035;28;20532;-75
2020/12/25 04:05:21;;;;;;;10.67;8.10;;;3.20;99.90;;;;;;5109474;28;20484;-75
2020/12/25 04:07:48;;;;;;;11.80;8.67;;;3.20;99.90;;;;;;5109913;28;20509;-75
2020/12/25 04:10:14;;;;;;;11.27;7.10;;;3.20;99.90;;;;;;5113610;28;20528;-74
2020/12/25 04:12:40;;;;;;;9.90;7.10;;;3.20;99.90;;;;;;5112613;28;20451;-75
2020/12/25 04:15:07;;;;;;;9.53;7.43;;;3.20;99.90;;;;;;5114201;28;20498;-75
2020/12/25 04:17:33;;;;;;;12.73;8.17;;;3.20;99.90;;;;;;5112595;28;21173;-75
2020/12/25 04:19:59;;;;;;;14.57;10.23;;;3.20;99.90;;;;;;5114161;27;20948;-74
2020/12/25 04:22:27;;;;;;;10.97;8.80;;;3.20;99.90;;;;;;5112702;27;20524;-74
2020/12/25 04:24:53;;;;;;;10.50;8.37;;;3.20;99.90;;;;;;5112637;28;20448;-74
2020/12/25 04:27:19;;;;;;;12.50;9.43;;;3.20;99.90;;;;;;5112252;28;20434;-75
2020/12/25 04:29:46;;;;;;;11.33;8.50;;;3.20;99.90;;;;;;5113036;28;20560;-74
2020/12/25 04:32:12;;;;;;;13.57;8.53;;;3.20;99.90;;;;;;5112003;28;20497;-74
2020/12/25 04:34:38;;;;;;;9.97;7.93;;;3.20;99.90;;;;;;5111595;28;20447;-74
2020/12/25 04:37:05;;;;;;;11.17;8.70;;;3.10;99.90;;;;;;5112495;28;20441;-74
2020/12/25 04:39:32;;;;;;;11.90;8.30;;;3.10;99.90;;;;;;5113828;28;20516;-74
2020/12/25 04:41:58;;;;;;;12.60;8.90;;;3.10;99.90;;;;;;5113250;28;21111;-74
2020/12/25 04:44:25;;;;;;;10.70;7.60;;;3.10;99.90;;;;;;5112896;28;21001;-74
2020/12/25 04:46:52;;;;;;;11.90;7.90;;;3.10;99.90;;;;;;5114138;28;20842;-74
2020/12/25 04:49:19;;;;;;;10.50;8.70;;;3.10;99.90;;;;;;5114687;28;20548;-75
2020/12/25 04:51:45;;;;;;;11.47;8.00;;;3.10;99.90;;;;;;5114903;28;20915;-74
2020/12/25 04:54:11;;;;;;;11.57;8.13;;;3.10;99.90;;;;;;5115709;28;20528;-74
2020/12/25 04:56:39;;;;;;;10.47;7.10;;;3.10;99.90;;;;;;5118055;28;20473;-75
2020/12/25 04:59:05;;;;;;;12.80;8.47;;;3.10;99.90;;;;;;5112105;28;20930;-74
2020/12/25 05:01:32;;;;;;;10.40;8.17;;;3.10;99.90;;;;;;5111127;28;20450;-75
2020/12/25 05:03:58;;;;;;;10.90;7.97;;;3.10;99.90;;;;;;5110856;28;20532;-75
2020/12/25 05:06:25;;;;;;;10.00;7.87;;;3.10;99.90;;;;;;5109933;28;20484;-74
2020/12/25 05:08:52;;;;;;;11.93;7.83;;;3.10;99.90;;;;;;5110453;28;20493;-75
2020/12/25 05:11:20;;;;;;;11.63;8.40;;;3.10;99.90;;;;;;5110575;28;20533;-74
2020/12/25 05:13:48;;;;;;;12.87;8.53;;;3.10;99.90;;;;;;5110544;28;20536;-75
2020/12/25 05:16:16;;;;;;;10.57;8.20;;;3.00;99.90;;;;;;5109490;28;20463;-75
2020/12/25 05:18:44;;;;;;;11.07;8.00;;;3.00;99.90;;;;;;5109674;28;20493;-75
2020/12/25 05:21:12;;;;;;;11.23;8.40;;;3.00;99.90;;;;;;5110153;28;20445;-75
2020/12/25 05:23:40;;;;;;;11.00;8.20;;;3.00;99.90;;;;;;5110313;28;20460;-75
2020/12/25 05:26:07;;;;;;;10.20;7.57;;;3.00;99.90;;;;;;5109518;28;20565;-75
2020/12/25 05:28:38;;;;;;;11.17;8.00;;;3.00;99.90;;;;;;5110284;28;20484;-74
2020/12/25 05:31:06;;;;;;;14.43;8.73;;;2.90;99.90;;;;;;5109411;28;20498;-74
2020/12/25 05:33:33;;;;;;;13.20;9.33;;;2.90;99.90;;;;;;5109622;28;21014;-74
2020/12/25 05:36:03;;;;;;;14.83;9.40;;;3.00;99.90;;;;;;5109118;28;20521;-75
2020/12/25 05:38:29;;;;;;;10.97;8.60;;;3.00;99.90;;;;;;5109677;28;20481;-74
2020/12/25 05:40:56;;;;;;;11.37;8.23;;;3.00;99.90;;;;;;5110036;28;20498;-74
2020/12/25 05:43:22;;;;;;;14.87;9.30;;;3.00;99.90;;;;;;5110867;28;20984;-75
2020/12/25 05:45:48;;;;;;;16.03;10.20;;;3.00;99.90;;;;;;5109242;28;20449;-75
2020/12/25 05:48:16;;;;;;;12.63;9.53;;;3.00;99.90;;;;;;5109543;28;20465;-74
2020/12/25 05:50:42;;;;;;;14.33;9.73;;;3.00;99.90;;;;;;5109488;28;20437;-75
2020/12/25 05:53:09;;;;;;;14.40;9.30;;;2.90;99.90;;;;;;5109470;28;20534;-75
2020/12/25 05:55:37;;;;;;;14.77;9.40;;;2.90;99.90;;;;;;5109619;28;20445;-74
2020/12/25 05:58:05;;;;;;;13.80;9.60;;;2.90;99.90;;;;;;5109002;28;20481;-74
2020/12/25 06:00:33;;;;;;;14.77;9.13;;;2.90;99.90;;;;;;5109625;28;20517;-74
2020/12/25 06:03:00;;;;;;;14.90;11.17;;;3.00;99.90;;;;;;5109565;28;20460;-74
2020/12/25 06:05:27;;;;;;;13.40;9.60;;;2.90;99.90;;;;;;5109759;28;20477;-74
2020/12/25 06:07:55;;;;;;;13.77;9.33;;;3.00;99.90;;;;;;5109279;28;20457;-74
2020/12/25 06:10:23;;;;;;;11.63;8.77;;;2.90;99.90;;;;;;5109797;28;20441;-73
2020/12/25 06:12:51;;;;;;;13.50;9.63;;;2.90;99.90;;;;;;5109395;28;20441;-76
2020/12/25 06:15:22;;;;;;;13.07;10.20;;;3.00;99.90;;;;;;5109114;28;20452;-76
2020/12/25 06:18:02;;;;;;;12.37;9.37;;;3.00;99.90;;;;;;5108118;28;20510;-76
2020/12/25 06:20:35;;;;;;;18.60;9.80;;;3.00;99.90;;;;;;5109258;28;20842;-75
2020/12/25 06:23:04;;;;;;;13.97;9.00;;;3.00;99.90;;;;;;5109301;28;20449;-76
2020/12/25 06:25:30;;;;;;;15.10;10.10;;;3.00;99.90;;;;;;5109357;28;21009;-76
2020/12/25 06:28:00;;;;;;;17.47;10.60;;;3.00;99.90;;;;;;5108392;28;20465;-75
2020/12/25 06:30:28;;;;;;;15.50;10.67;;;3.00;99.90;;;;;;5108644;28;20791;-76
2020/12/25 06:32:56;;;;;;;13.67;10.43;;;3.00;99.90;;;;;;5107653;28;20434;-75
2020/12/25 06:35:35;;;;;;;13.30;9.07;;;3.00;99.90;;;;;;5109125;28;20437;-74
2020/12/25 06:38:12;;;;;;;16.53;10.53;;;3.00;99.90;;;;;;5108054;28;20480;-75
2020/12/25 06:40:39;;;;;;;12.73;9.57;;;3.00;99.90;;;;;;5108860;28;20445;-76
2020/12/25 06:43:13;;;;;;;14.23;11.33;;;3.00;99.90;;;;;;5108658;28;20445;-76
2020/12/25 06:45:39;;;;;;;18.23;10.87;;;3.00;99.90;;;;;;5108675;28;20528;-74
2020/12/25 06:48:17;;;;;;;13.60;9.43;;;3.00;99.90;;;;;;5108840;28;20549;-76
2020/12/25 06:50:53;;;;;;;14.47;10.50;;;3.00;99.90;;;;;;5108782;28;20447;-75
2020/12/25 06:53:36;;;;;;;13.27;9.00;;;2.80;99.90;;;;;;5108752;28;20444;-75
2020/12/25 06:56:13;;;;;;;13.63;9.47;;;2.90;99.90;;;;;;5108273;28;20470;-76
2020/12/25 06:58:43;;;;;;;14.30;9.63;;;2.90;99.90;;;;;;5108558;28;20940;-76
2020/12/25 07:01:10;;;;;;;14.47;9.23;;;2.80;99.90;;;;;;5108740;28;20797;-76
2020/12/25 07:03:37;;;;;;;12.90;9.17;;;2.80;99.90;;;;;;5108576;28;20445;-76
2020/12/25 07:06:08;;;;;;;15.00;10.70;;;2.80;99.90;;;;;;5108204;28;20449;-75
2020/12/25 07:08:39;;;;;;;15.20;10.60;;;2.90;99.90;;;;;;5108910;28;20460;-76
2020/12/25 07:11:07;;;;;;;13.33;9.80;;;2.80;99.90;;;;;;5108783;28;20441;-76
2020/12/25 07:13:34;;;;;;;14.80;9.40;;;2.90;99.90;;;;;;5108656;28;20582;-76
2020/12/25 07:16:01;;;;;;;13.50;9.47;;;2.90;99.90;;;;;;5107787;28;20461;-75
2020/12/25 07:18:28;;;;;;;16.57;10.37;;;2.90;99.90;;;;;;5108272;28;20481;-75
2020/12/25 07:20:58;;;;;;;12.83;9.50;;;2.90;99.90;;;;;;5108599;28;20532;-76
2020/12/25 07:23:25;;;;;;;13.50;9.30;;;2.90;99.90;;;;;;5108593;28;20448;-76
2020/12/25 07:25:53;;;;;;;13.73;8.93;;;2.80;99.90;;;;;;5107814;28;20459;-75
2020/12/25 07:28:23;;;;;;;14.97;9.67;;;2.80;99.90;;;;;;5110174;28;20557;-75
2020/12/25 07:30:51;;;;;;;13.73;10.10;;;2.80;99.90;;;;;;5110587;28;20439;-75
2020/12/25 07:33:17;;;;;;;16.77;9.90;;;2.90;99.90;;;;;;5109507;28;20466;-76
2020/12/25 07:35:43;;;;;;;15.00;10.50;;;2.90;99.90;;;;;;5108109;28;20646;-75
2020/12/25 07:38:13;;;;;;;13.60;10.60;;;2.90;99.90;;;;;;5108158;28;20671;-75
2020/12/25 07:40:40;;;;;;;13.17;8.80;;;2.90;99.90;;;;;;5108792;28;20821;-76
2020/12/25 07:43:07;;;;;;;13.40;9.20;;;2.80;99.90;;;;;;5110289;28;20533;-76
2020/12/25 07:45:34;;;;;;;13.13;8.63;;;2.80;99.90;;;;;;5112335;28;21074;-75
2020/12/25 07:48:03;;;;;;;14.27;9.40;;;2.80;99.90;;;;;;5111664;28;20476;-76
2020/12/25 07:50:34;;;;;;;14.43;9.97;;;2.80;99.90;;;;;;5112232;28;20528;-75
2020/12/25 07:53:00;;;;;;;12.03;9.10;;;2.80;99.90;;;;;;5112402;28;20449;-74
2020/12/25 07:55:28;;;;;;;11.97;8.70;;;2.80;99.90;;;;;;5112354;28;20557;-76
2020/12/25 07:57:56;;;;;;;12.47;8.90;;;2.70;99.90;;;;;;5111440;28;20488;-75
2020/12/25 08:00:23;;;;;;;13.13;9.40;;;2.70;99.90;;;;;;5112418;28;20445;-76
2020/12/25 08:02:53;;;;;;;17.00;10.47;;;2.70;99.90;;;;;;5112052;28;21135;-77
2020/12/25 08:05:19;;;;;;;14.33;10.23;;;2.70;99.90;;;;;;5111928;28;20501;-76
2020/12/25 08:07:46;;;;;;;13.97;9.83;;;2.70;99.90;;;;;;5111243;28;20529;-76
2020/12/25 08:10:14;;;;;;;15.07;10.37;;;2.70;99.90;;;;;;5111820;28;20437;-76
2020/12/25 08:12:43;;;;;;;21.27;12.60;;;2.80;99.90;;;;;;5111763;28;20531;-75
2020/12/25 08:15:12;;;;;;;17.70;10.30;;;2.80;99.90;;;;;;5111729;28;20543;-75
2020/12/25 08:17:40;;;;;;;17.47;10.60;;;2.80;99.90;;;;;;5110917;28;20449;-74
2020/12/25 08:20:06;;;;;;;14.13;10.30;;;2.80;99.90;;;;;;5111689;28;20481;-76
2020/12/25 08:22:33;;;;;;;16.17;10.63;;;2.80;99.90;;;;;;5111645;28;20447;-76
2020/12/25 08:24:59;;;;;;;15.17;9.97;;;2.80;99.90;;;;;;5111607;28;20437;-74
2020/12/25 08:27:31;;;;;;;18.30;11.43;;;2.80;99.90;;;;;;5110881;28;20510;-76
2020/12/25 08:30:00;;;;;;;18.90;11.27;;;2.90;99.90;;;;;;5111584;28;20522;-76
2020/12/25 08:32:29;;;;;;;16.13;11.43;;;2.90;99.90;;;;;;5109860;28;20456;-76
2020/12/25 08:35:16;;;;;;;20.90;11.90;;;2.90;99.90;;;;;;5111508;28;20442;-76
2020/12/25 08:37:53;;;;;;;19.90;12.57;;;3.00;99.90;;;;;;5110800;28;20517;-75
2020/12/25 08:40:19;;;;;;;18.40;12.50;;;3.00;99.90;;;;;;5111396;28;20527;-76
2020/12/25 08:42:46;;;;;;;19.60;12.40;;;3.10;99.90;;;;;;5111317;28;20445;-76
2020/12/25 08:45:18;;;;;;;18.47;12.67;;;3.20;99.90;;;;;;5111615;28;20532;-76
2020/12/25 08:48:00;;;;;;;22.37;13.47;;;3.30;99.90;;;;;;5111443;28;20515;-75
2020/12/25 08:50:26;;;;;;;24.00;12.63;;;3.40;99.90;;;;;;5112093;27;20540;-75
2020/12/25 08:53:08;;;;;;;15.73;11.43;;;3.40;99.90;;;;;;5111537;28;20449;-76
2020/12/25 08:55:35;;;;;;;20.90;14.17;;;3.50;99.90;;;;;;5111184;28;20448;-76
2020/12/25 08:58:01;;;;;;;20.80;14.33;;;3.50;99.90;;;;;;5110830;28;20565;-76
2020/12/25 09:00:28;;;;;;;16.90;13.17;;;3.50;99.90;;;;;;5110792;28;20445;-75
2020/12/25 09:02:57;;;;;;;21.20;14.10;;;3.60;99.90;;;;;;5111059;28;21012;-75
2020/12/25 09:05:23;;;;;;;18.27;12.27;;;3.60;99.90;;;;;;5116582;27;20886;-77
2020/12/25 09:07:50;;;;;;;21.13;13.13;;;3.70;99.90;;;;;;5130885;27;20644;-76
2020/12/25 09:10:16;;;;;;;20.60;14.50;;;3.70;99.90;;;;;;5131839;27;21162;-76
2020/12/25 09:12:43;;;;;;;18.27;12.03;;;3.80;99.90;;;;;;5132069;27;20853;-76
2020/12/25 09:15:09;;;;;;;18.87;13.10;;;3.80;99.90;;;;;;5131705;27;20960;-75
2020/12/25 09:17:35;;;;;;;16.73;13.13;;;3.80;99.90;;;;;;5132173;27;20447;-76
2020/12/25 09:20:03;;;;;;;19.73;13.23;;;3.90;99.90;;;;;;5131656;27;20571;-75
2020/12/25 09:22:30;;;;;;;16.90;11.60;;;3.90;99.90;;;;;;5131729;27;20552;-75
2020/12/25 09:24:56;;;;;;;15.20;11.60;;;3.90;99.90;;;;;;5131151;27;20447;-74
2020/12/25 09:27:22;;;;;;;14.20;10.90;;;3.90;99.90;;;;;;5130990;27;20930;-73
2020/12/25 09:29:49;;;;;;;15.10;10.87;;;3.80;99.90;;;;;;5131591;27;20533;-73
2020/12/25 09:32:15;;;;;;;14.43;10.63;;;3.80;99.90;;;;;;5131291;27;20836;-72
2020/12/25 09:34:41;;;;;;;12.87;11.10;;;3.80;99.90;;;;;;5131338;27;20936;-75
2020/12/25 09:37:09;;;;;;;17.80;10.80;;;3.80;99.90;;;;;;5130968;27;20440;-74
2020/12/25 09:39:35;;;;;;;14.40;10.17;;;3.80;99.90;;;;;;5131194;27;20484;-74
2020/12/25 09:42:01;;;;;;;13.63;10.17;;;3.80;99.90;;;;;;5133341;27;20527;-76
2020/12/25 09:44:28;;;;;;;13.07;10.57;;;3.80;99.90;;;;;;5134854;27;21000;-75
2020/12/25 09:46:54;;;;;;;12.80;9.20;;;3.80;99.90;;;;;;5131213;27;20530;-76
2020/12/25 09:49:20;;;;;;;13.63;9.00;;;3.80;99.90;;;;;;5131780;27;20548;-76
2020/12/25 09:51:47;;;;;;;14.17;9.90;;;3.80;99.90;;;;;;5132227;27;20541;-76
2020/12/25 09:54:14;;;;;;;11.47;9.40;;;3.80;99.90;;;;;;5125046;27;20500;-74
2020/12/25 09:56:40;;;;;;;12.00;9.20;;;3.80;99.90;;;;;;5105092;28;20450;-76
2020/12/25 09:59:07;;;;;;;15.10;10.70;;;3.80;99.90;;;;;;5111883;28;20932;-75
2020/12/25 10:01:33;;;;;;;10.90;7.70;;;3.80;99.90;;;;;;5108010;28;20453;-75
2020/12/25 10:03:59;;;;;;;12.33;8.53;;;3.90;99.90;;;;;;5101956;27;20463;-76
2020/12/25 10:06:27;;;;;;;9.77;7.43;;;3.90;99.90;;;;;;5121797;27;20539;-78
2020/12/25 10:08:54;;;;;;;12.80;7.67;;;3.90;99.90;;;;;;5110274;28;20981;-75
2020/12/25 10:11:21;;;;;;;13.07;8.50;;;3.90;99.90;;;;;;5095577;28;20523;-76
2020/12/25 10:13:48;;;;;;;11.17;7.87;;;4.00;99.90;;;;;;5094200;28;20949;-74
2020/12/25 10:16:14;;;;;;;7.87;6.63;;;3.90;99.90;;;;;;5105754;27;20445;-73
2020/12/25 10:18:42;;;;;;;10.40;7.10;;;3.80;99.90;;;;;;5106988;28;20567;-77
2020/12/25 10:21:08;;;;;;;12.30;8.70;;;3.70;99.90;;;;;;5100422;28;20515;-74
2020/12/25 10:23:35;;;;;;;13.50;7.67;;;3.70;99.90;;;;;;5107997;28;20588;-77
2020/12/25 10:26:01;;;;;;;12.60;8.20;;;3.80;99.90;;;;;;5111104;28;20506;-73
2020/12/25 10:28:28;;;;;;;12.20;8.10;;;3.80;99.90;;;;;;5099603;28;21019;-75
2020/12/25 10:30:55;;;;;;;12.50;9.30;;;3.80;99.90;;;;;;5106566;28;20489;-76
2020/12/25 10:33:21;;;;;;;9.77;7.57;;;3.90;99.90;;;;;;5102441;27;20560;-73
2020/12/25 10:35:47;;;;;;;12.10;7.87;;;4.00;99.90;;;;;;5109246;28;20533;-74
2020/12/25 10:38:14;;;;;;;11.03;7.97;;;4.00;99.90;;;;;;5096995;28;20466;-76
2020/12/25 10:40:40;;;;;;;15.73;9.70;;;4.10;99.90;;;;;;5092026;28;20538;-76
2020/12/25 10:43:07;;;;;;;8.20;6.60;;;4.00;99.90;;;;;;5091936;28;20489;-75
2020/12/25 10:45:34;;;;;;;9.43;7.00;;;4.00;99.90;;;;;;5104672;28;20453;-74
2020/12/25 10:48:00;;;;;;;11.80;7.30;;;3.90;99.90;;;;;;5104203;28;20553;-73
2020/12/25 10:50:26;;;;;;;11.50;7.40;;;4.00;99.90;;;;;;5107307;28;20444;-74
2020/12/25 10:52:55;;;;;;;11.90;8.10;;;4.00;99.90;;;;;;5109696;28;20445;-73
2020/12/25 10:55:21;;;;;;;10.17;7.90;;;4.00;99.90;;;;;;5109258;28;20449;-73
2020/12/25 10:57:47;;;;;;;10.73;7.63;;;4.00;99.90;;;;;;5108258;28;21000;-73
2020/12/25 11:00:14;;;;;;;9.23;7.17;;;4.00;99.90;;;;;;5109426;28;20580;-73
2020/12/25 11:02:41;;;;;;;10.57;6.50;;;4.00;99.90;;;;;;5101128;28;20482;-73
2020/12/25 11:05:08;;;;;;;8.93;6.93;;;4.00;99.90;;;;;;5108961;28;20520;-77
2020/12/25 11:07:34;;;;;;;7.90;6.77;;;3.90;99.90;;;;;;5103255;28;20449;-72
2020/12/25 11:10:00;;;;;;;9.40;6.77;;;3.90;99.90;;;;;;5106770;28;21031;-73
2020/12/25 11:12:27;;;;;;;10.30;7.57;;;4.00;99.90;;;;;;5102917;28;20536;-71
2020/12/25 11:14:53;;;;;;;8.73;7.10;;;4.00;99.90;;;;;;5103524;28;20561;-74
2020/12/25 11:17:19;;;;;;;10.83;7.13;;;3.90;99.90;;;;;;5104358;27;20468;-73
2020/12/25 11:19:47;;;;;;;11.50;6.20;;;4.00;99.90;;;;;;5105446;27;20593;-74
2020/12/25 11:22:17;;;;;;;8.70;5.67;;;3.90;99.90;;;;;;5106579;27;20935;-73
2020/12/25 11:24:43;;;;;;;8.10;5.73;;;3.90;99.90;;;;;;5112010;28;20441;-73
2020/12/25 11:27:10;;;;;;;11.97;6.30;;;3.90;99.90;;;;;;5113762;28;20457;-75
2020/12/25 11:29:36;;;;;;;8.30;6.40;;;3.90;99.90;;;;;;5114668;28;21236;-75
2020/12/25 11:32:03;;;;;;;7.93;5.80;;;3.90;99.90;;;;;;5108719;28;20453;-75
2020/12/25 11:34:29;;;;;;;10.43;6.07;;;3.90;99.90;;;;;;5114034;27;20468;-75
2020/12/25 11:36:56;;;;;;;9.60;6.30;;;3.90;99.90;;;;;;5121381;27;20523;-72
2020/12/25 11:39:23;;;;;;;6.17;5.10;;;3.90;99.90;;;;;;5102113;27;21178;-74
2020/12/25 11:41:49;;;;;;;7.80;5.57;;;3.90;99.90;;;;;;5102719;28;20854;-74
2020/12/25 11:44:15;;;;;;;8.90;5.50;;;3.90;99.90;;;;;;5113781;27;20480;-74
2020/12/25 11:46:42;;;;;;;6.33;4.43;;;3.90;99.90;;;;;;5111796;28;20453;-75
2020/12/25 11:49:08;;;;;;;6.07;4.83;;;4.00;99.90;;;;;;5112592;28;20473;-75
2020/12/25 11:51:35;;;;;;;5.70;4.80;;;4.00;99.90;;;;;;5112061;28;20516;-74
2020/12/25 11:54:02;;;;;;;6.23;4.77;;;4.00;99.90;;;;;;5112275;28;20985;-71
2020/12/25 11:56:30;;;;;;;6.73;5.10;;;4.10;99.90;;;;;;5110759;28;20887;-75
2020/12/25 11:58:57;;;;;;;5.43;4.30;;;4.00;99.90;;;;;;5111440;28;20495;-74
2020/12/25 12:01:23;;;;;;;6.37;4.97;;;4.10;99.90;;;;;;5112471;28;20477;-75
2020/12/25 12:03:49;;;;;;;7.30;5.03;;;4.10;99.90;;;;;;5112547;28;20453;-76
2020/12/25 12:06:20;;;;;;;7.43;5.70;;;4.10;99.90;;;;;;5112572;28;20541;-72
2020/12/25 12:08:46;;;;;;;5.60;5.00;;;4.20;99.90;;;;;;5106973;28;20463;-75
2020/12/25 12:11:13;;;;;;;5.80;4.00;;;4.10;99.90;;;;;;5110614;28;20474;-76
2020/12/25 12:13:40;;;;;;;5.83;4.60;;;4.10;99.90;;;;;;5110909;28;20521;-71
2020/12/25 12:16:12;;;;;;;5.73;4.70;;;4.10;99.90;;;;;;5110556;28;20483;-75
2020/12/25 12:18:39;;;;;;;6.17;4.47;;;4.00;99.90;;;;;;5111233;28;20512;-77
2020/12/25 12:21:08;;;;;;;9.23;4.73;;;4.00;99.90;;;;;;5113348;28;20483;-76
2020/12/25 12:23:34;;;;;;;5.43;4.17;;;4.00;99.90;;;;;;5111769;28;21004;-77
2020/12/25 12:26:00;;;;;;;7.37;4.87;;;4.00;99.90;;;;;;5111988;28;20528;-74
2020/12/25 12:28:28;;;;;;;4.83;4.30;;;4.00;99.90;;;;;;5112083;28;21011;-76
2020/12/25 12:30:54;;;;;;;6.53;5.80;;;4.00;99.90;;;;;;5111959;28;20528;-77
2020/12/25 12:33:20;;;;;;;5.83;5.27;;;4.00;99.90;;;;;;5114869;28;20947;-76
2020/12/25 12:35:47;;;;;;;6.80;5.67;;;4.00;99.90;;;;;;5115074;28;20465;-76
2020/12/25 12:38:14;;;;;;;4.77;4.00;;;4.00;99.90;;;;;;5117646;28;20489;-78
2020/12/25 12:40:40;;;;;;;5.97;4.40;;;3.90;99.90;;;;;;5118743;28;20461;-78
2020/12/25 12:43:07;;;;;;;5.33;4.23;;;4.00;99.90;;;;;;5116487;28;20511;-74
2020/12/25 12:45:34;;;;;;;6.40;4.50;;;4.00;99.90;;;;;;5114069;28;20455;-75
2020/12/25 12:48:01;;;;;;;6.23;4.57;;;3.90;99.90;;;;;;5106005;28;20489;-76